Terminal Aerodrome Forecast
Issued by NWS Northern Indiana

Home | Current Version | Previous Version | Text Only | Print | Product List | Glossary On
Versions: 1 2 3 4 5 6 7 8 9 10 11 12
000
FTUS43 KIWX 231739
TAFFWA
TAF
KFWA 231739Z 2318/2418 22011KT P6SM SCT060
     FM232300 21005KT P6SM FEW250
     FM241500 20011G18KT P6SM SCT250=

USA.gov is the U.S. government's official web portal to all federal, state and local government web resources and services.